Terminal Aerodrome Forecast
Issued by NWS

Home | Current Version | Previous Version | Graphics & Text | Print | Product List | Glossary On
Versions: 1 2 3 4 5 6 7 8 9 10 11 12 13 14
909
FTUS43 KABR 030527
TAFPIR
TAF
KPIR 030527Z 0306/0406 VRB05KT P6SM SKC
     FM031000 VRB03KT P6SM VCFG FEW050
     FM031600 30008KT P6SM FEW250
     FM031800 32012KT P6SM FEW250=

USA.gov is the U.S. government's official web portal to all federal, state and local government web resources and services.